Time;durP1;ratioP1;P1;durP2;ratioP2;P2;SDS_P1;SDS_P2;PMS_P1;PMS_P2;Temp;Humidity;BMP_temperature;BMP_pressure;BME280_temperature;BME280_humidity;BME280_pressure;Samples;Min_cycle;Max_cycle;Signal;HPM_P1;HPM_P2
2023/06/07 00:00:08;;;;;;;7.07;4.90;;;;;;;15.72;100.00;101029.75;700981;28;939;-57
2023/06/07 00:00:36;;;;;;;6.50;5.10;;;;;;;15.71;100.00;101025.38;700688;28;923;-57
2023/06/07 00:00:59;;;;;;;7.25;5.10;;;;;;;15.70;100.00;101023.63;700099;28;1057;-57
2023/06/07 00:01:20;;;;;;;8.18;4.93;;;;;;;15.69;100.00;101025.41;700281;28;4440;-57
2023/06/07 00:01:42;;;;;;;7.28;4.53;;;;;;;15.69;100.00;101027.16;699934;28;1525;-58
2023/06/07 00:02:06;;;;;;;6.65;4.90;;;;;;;15.68;100.00;101028.94;701026;28;1184;-57
2023/06/07 00:02:27;;;;;;;6.90;4.78;;;;;;;15.66;100.00;101031.63;700651;28;1369;-57
2023/06/07 00:02:47;;;;;;;7.03;4.70;;;;;;;15.67;100.00;101029.84;699702;28;2154;-57
2023/06/07 00:03:09;;;;;;;6.35;4.68;;;;;;;15.66;100.00;101023.72;701301;28;910;-57
2023/06/07 00:03:29;;;;;;;5.90;4.43;;;;;;;15.67;100.00;101024.56;701825;28;986;-58
2023/06/07 00:03:50;;;;;;;7.30;4.80;;;;;;;15.66;100.00;101023.72;699312;28;1474;-57
2023/06/07 00:04:11;;;;;;;7.43;4.87;;;;;;;15.66;100.00;101026.34;700101;28;4325;-56
2023/06/07 00:04:33;;;;;;;6.88;4.72;;;;;;;15.69;100.00;101027.16;699905;28;1279;-57
2023/06/07 00:04:54;;;;;;;7.05;5.00;;;;;;;15.69;100.00;101027.16;699478;28;1556;-58
2023/06/07 00:05:14;;;;;;;6.70;4.90;;;;;;;15.69;100.00;101028.06;701371;28;841;-57
2023/06/07 00:05:38;;;;;;;6.57;4.80;;;;;;;15.70;100.00;101028.91;701040;28;1334;-58
2023/06/07 00:06:00;;;;;;;6.38;4.57;;;;;;;15.71;100.00;101031.50;701587;28;816;-57
2023/06/07 00:06:23;;;;;;;5.93;4.82;;;;;;;15.71;100.00;101025.38;700485;28;1026;-57
2023/06/07 00:06:44;;;;;;;6.25;4.72;;;;;;;15.72;100.00;101033.25;700034;28;1918;-58
2023/06/07 00:07:05;;;;;;;6.70;4.63;;;;;;;15.72;100.00;101027.97;701295;28;923;-57
2023/06/07 00:07:25;;;;;;;6.60;4.90;;;;;;;15.73;100.00;101023.56;699679;28;4511;-57
2023/06/07 00:07:46;;;;;;;6.90;5.13;;;;;;;15.73;100.00;101024.47;699236;28;1512;-58
2023/06/07 00:08:07;;;;;;;6.87;5.07;;;;;;;15.72;100.00;101033.25;700680;28;1541;-57
2023/06/07 00:08:31;;;;;;;6.53;5.05;;;;;;;15.73;100.00;101021.81;700603;28;974;-57
2023/06/07 00:08:52;;;;;;;7.40;5.13;;;;;;;15.75;100.00;101037.59;699136;28;1624;-58
2023/06/07 00:09:13;;;;;;;6.68;4.82;;;;;;;15.74;100.00;101027.94;701446;28;900;-58
2023/06/07 00:09:33;;;;;;;7.32;4.95;;;;;;;15.73;100.00;101026.19;701075;28;777;-57
2023/06/07 00:09:54;;;;;;;7.00;4.77;;;;;;;15.72;100.00;101030.63;699943;28;1501;-57
2023/06/07 00:10:14;;;;;;;5.88;4.60;;;;;;;15.73;100.00;101035.00;700349;28;4588;-57
2023/06/07 00:10:36;;;;;;;5.63;4.53;;;;;;;15.73;100.00;101034.09;700848;28;930;-58
2023/06/07 00:10:57;;;;;;;6.20;4.60;;;;;;;15.74;100.00;101031.47;700599;28;911;-57
2023/06/07 00:11:20;;;;;;;6.15;4.30;;;;;;;15.73;100.00;101029.72;701446;28;867;-57
2023/06/07 00:11:42;;;;;;;6.30;4.60;;;;;;;15.73;100.00;101028.84;698735;28;1744;-58
2023/06/07 00:12:03;;;;;;;6.95;4.90;;;;;;;15.74;100.00;101031.47;700502;28;1005;-57
2023/06/07 00:12:24;;;;;;;7.07;5.00;;;;;;;15.72;100.00;101027.97;701317;28;940;-58
2023/06/07 00:12:45;;;;;;;8.17;5.20;;;;;;;15.72;100.00;101030.63;699472;28;1471;-58
2023/06/07 00:13:05;;;;;;;8.05;5.13;;;;;;;15.71;100.00;101028.00;701173;28;848;-57
2023/06/07 00:13:25;;;;;;;8.07;5.10;;;;;;;15.72;100.00;101043.78;700915;28;4292;-57
2023/06/07 00:13:46;;;;;;;8.05;5.15;;;;;;;15.71;100.00;101035.94;698977;28;1486;-57
2023/06/07 00:14:06;;;;;;;7.00;5.23;;;;;;;15.71;100.00;101030.66;701341;28;1251;-57
2023/06/07 00:14:27;;;;;;;7.60;5.50;;;;;;;15.72;100.00;101035.88;700434;28;1269;-57
2023/06/07 00:14:47;;;;;;;7.17;5.10;;;;;;;15.70;100.00;101031.53;699211;28;1554;-58
2023/06/07 00:15:08;;;;;;;7.88;5.00;;;;;;;15.72;100.00;101032.41;699913;28;1058;-57
2023/06/07 00:15:29;;;;;;;7.38;5.05;;;;;;;15.73;100.00;101034.09;701268;28;998;-57
2023/06/07 00:15:49;;;;;;;6.78;5.00;;;;;;;15.74;100.00;101026.19;699701;28;1427;-57
2023/06/07 00:16:10;;;;;;;6.60;5.00;;;;;;;15.74;100.00;101034.09;700039;28;4697;-56
2023/06/07 00:16:32;;;;;;;8.70;5.07;;;;;;;15.74;100.00;101036.75;701283;28;816;-57
2023/06/07 00:16:54;;;;;;;6.32;4.80;;;;;;;15.76;100.00;101034.06;697671;28;3140;-58
2023/06/07 00:17:15;;;;;;;7.20;4.88;;;;;;;15.76;100.00;101034.06;701492;28;848;-57
2023/06/07 00:17:37;;;;;;;6.70;5.10;;;;;;;15.76;100.00;101041.97;700680;28;1284;-58
2023/06/07 00:18:00;;;;;;;6.47;4.95;;;;;;;15.75;100.00;101033.19;700781;28;1049;-57
2023/06/07 00:18:21;;;;;;;6.25;5.00;;;;;;;15.77;100.00;101030.50;701663;28;899;-58
2023/06/07 00:18:41;;;;;;;6.17;5.00;;;;;;;15.77;100.00;101030.50;699974;28;1786;-57
2023/06/07 00:19:03;;;;;;;6.82;5.15;;;;;;;15.78;100.00;101032.25;700982;28;836;-57
2023/06/07 00:19:27;;;;;;;6.63;5.00;;;;;;;15.78;100.00;101038.41;699775;28;4356;-58
2023/06/07 00:19:48;;;;;;;8.15;4.90;;;;;;;15.79;100.00;101034.00;697172;28;1807;-58
2023/06/07 00:20:08;;;;;;;6.67;5.00;;;;;;;15.78;100.00;101037.53;698484;28;884;-57
2023/06/07 00:20:30;;;;;;;6.90;5.97;;;;;;;15.80;100.00;101035.78;698892;28;975;-57
2023/06/07 00:20:52;;;;;;;8.05;5.05;;;;;;;15.79;100.00;101036.63;697676;28;1740;-57
2023/06/07 00:21:12;;;;;;;6.93;4.78;;;;;;;15.80;100.00;101030.50;701092;28;982;-57
2023/06/07 00:21:32;;;;;;;6.20;4.95;;;;;;;15.82;100.00;101031.31;698961;28;1229;-57
2023/06/07 00:21:53;;;;;;;7.20;5.10;;;;;;;15.82;100.00;101041.88;699736;28;1624;-58
2023/06/07 00:22:13;;;;;;;7.43;4.93;;;;;;;15.81;100.00;101032.22;697563;28;4443;-57
2023/06/07 00:22:34;;;;;;;6.07;4.90;;;;;;;15.80;100.00;101034.00;695917;28;818;-57
2023/06/07 00:22:57;;;;;;;6.68;5.05;;;;;;;15.80;100.00;101035.78;693477;28;1594;-57
2023/06/07 00:23:21;;;;;;;7.45;4.80;;;;;;;15.80;100.00;101035.78;696517;28;920;-57
2023/06/07 00:23:42;;;;;;;6.80;5.10;;;;;;;15.80;100.00;101035.78;697116;28;1541;-58
2023/06/07 00:24:02;;;;;;;6.72;5.22;;;;;;;15.81;100.00;101032.22;696485;28;900;-57
2023/06/07 00:24:23;;;;;;;6.43;5.20;;;;;;;15.81;100.00;101032.22;699773;28;924;-57
2023/06/07 00:24:43;;;;;;;6.38;4.90;;;;;;;15.82;100.00;101033.97;698046;28;1368;-58
2023/06/07 00:25:05;;;;;;;6.87;5.20;;;;;;;15.82;100.00;101039.25;700341;28;944;-57
2023/06/07 00:25:25;;;;;;;6.25;5.10;;;;;;;15.82;100.00;101034.84;697677;28;4484;-62
2023/06/07 00:25:46;;;;;;;6.00;5.30;;;;;;;15.82;100.00;101034.84;697548;28;918;-58
2023/06/07 00:26:06;;;;;;;6.50;5.30;;;;;;;15.84;100.00;101037.44;698495;28;1301;-57
2023/06/07 00:26:27;;;;;;;6.57;5.05;;;;;;;15.83;100.00;101036.56;697488;28;935;-57
2023/06/07 00:26:48;;;;;;;7.45;5.00;;;;;;;15.84;100.00;101040.09;696015;28;1969;-58
2023/06/07 00:27:08;;;;;;;6.83;4.83;;;;;;;15.83;100.00;101033.94;695452;28;1770;-57
2023/06/07 00:27:30;;;;;;;7.05;5.97;;;;;;;15.81;100.00;101038.38;695932;28;758;-58
2023/06/07 00:27:53;;;;;;;6.75;5.60;;;;;;;15.80;100.00;101039.28;694646;28;977;-57
2023/06/07 00:28:15;;;;;;;6.95;4.85;;;;;;;15.80;100.00;101038.41;694674;28;4360;-57
2023/06/07 00:28:36;;;;;;;7.43;5.18;;;;;;;15.80;100.00;101047.19;698013;28;1001;-58
2023/06/07 00:28:56;;;;;;;7.00;5.20;;;;;;;15.80;100.00;101039.28;692926;28;1509;-57
2023/06/07 00:29:17;;;;;;;6.77;5.37;;;;;;;15.82;100.00;101042.75;694804;28;881;-58
2023/06/07 00:29:37;;;;;;;7.88;5.60;;;;;;;15.82;100.00;101033.97;694751;28;968;-57
2023/06/07 00:29:58;;;;;;;7.70;5.67;;;;;;;15.82;100.00;101036.59;696161;28;1267;-57
2023/06/07 00:30:18;;;;;;;6.40;5.10;;;;;;;15.83;100.00;101040.97;698679;28;769;-57
2023/06/07 00:30:39;;;;;;;6.67;5.23;;;;;;;15.82;100.00;101042.75;697258;28;898;-57
2023/06/07 00:30:59;;;;;;;6.50;5.20;;;;;;;15.85;100.00;101041.81;703634;28;1221;-57
2023/06/07 00:31:20;;;;;;;7.60;5.37;;;;;;;15.85;100.00;101039.16;703106;28;4375;-57
2023/06/07 00:31:40;;;;;;;7.15;5.43;;;;;;;15.85;100.00;101039.16;698986;28;1165;-58
2023/06/07 00:32:02;;;;;;;7.27;5.40;;;;;;;15.87;100.00;101040.03;701164;28;864;-57
2023/06/07 00:32:24;;;;;;;6.82;5.22;;;;;;;15.87;100.00;101047.94;701048;28;1687;-57
2023/06/07 00:32:45;;;;;;;6.55;5.03;;;;;;;15.87;100.00;101042.66;699496;28;1320;-57
2023/06/07 00:33:05;;;;;;;6.43;5.00;;;;;;;15.88;100.00;101047.03;701083;28;1384;-57
2023/06/07 00:33:26;;;;;;;8.00;5.15;;;;;;;15.88;100.00;101039.13;697435;28;1312;-57
2023/06/07 00:33:47;;;;;;;7.70;5.10;;;;;;;15.88;100.00;101038.25;693946;28;887;-57
2023/06/07 00:34:07;;;;;;;7.45;5.10;;;;;;;15.89;100.00;101042.63;692738;28;1159;-57
2023/06/07 00:34:27;;;;;;;7.50;5.20;;;;;;;15.88;100.00;101041.75;692450;28;4477;-57
2023/06/07 00:34:48;;;;;;;6.82;5.30;;;;;;;15.88;100.00;101041.75;691436;28;1305;-57
2023/06/07 00:35:10;;;;;;;6.77;5.30;;;;;;;15.88;100.00;101038.25;695760;28;1038;-57
2023/06/07 00:35:31;;;;;;;7.28;5.32;;;;;;;15.87;100.00;101045.28;697985;28;828;-57
2023/06/07 00:35:51;;;;;;;7.97;5.37;;;;;;;15.85;100.00;101047.06;691294;28;1241;-58
2023/06/07 00:36:12;;;;;;;6.03;5.13;;;;;;;15.92;100.00;101038.16;696241;28;1346;-57
2023/06/07 00:36:35;;;;;;;6.20;4.80;;;;;;;15.93;100.00;101044.28;698828;28;845;-57
2023/06/07 00:36:56;;;;;;;7.00;5.30;;;;;;;15.93;100.00;101042.50;697086;28;1085;-57
2023/06/07 00:37:16;;;;;;;7.70;5.40;;;;;;;15.93;100.00;101039.03;695079;28;4557;-57
2023/06/07 00:37:38;;;;;;;8.52;5.10;;;;;;;15.93;100.00;101042.50;692643;28;1415;-58
2023/06/07 00:37:59;;;;;;;7.45;5.28;;;;;;;15.92;100.00;101039.91;695337;28;1423;-57
2023/06/07 00:38:19;;;;;;;6.83;5.47;;;;;;;15.92;100.00;101035.53;695670;28;1054;-57
2023/06/07 00:38:40;;;;;;;6.70;5.32;;;;;;;15.94;100.00;101041.63;694780;28;957;-58
2023/06/07 00:39:02;;;;;;;6.63;4.97;;;;;;;15.94;100.00;101038.97;698137;28;809;-57
2023/06/07 00:39:24;;;;;;;5.75;4.78;;;;;;;15.94;100.00;101041.63;698076;28;5777;-57
2023/06/07 00:39:44;;;;;;;6.80;5.40;;;;;;;15.94;100.00;101041.63;697542;28;922;-58
2023/06/07 00:40:05;;;;;;;6.77;5.23;;;;;;;15.94;100.00;101038.13;700242;28;1292;-57
2023/06/07 00:40:26;;;;;;;6.10;5.18;;;;;;;15.95;100.00;101042.47;700602;28;4289;-57
2023/06/07 00:40:47;;;;;;;7.65;5.43;;;;;;;15.95;100.00;101038.09;697946;28;950;-58
2023/06/07 00:41:07;;;;;;;7.67;5.40;;;;;;;15.96;100.00;101044.22;700904;28;891;-57
2023/06/07 00:41:29;;;;;;;7.03;5.25;;;;;;;15.97;100.00;101041.53;698614;28;1195;-57
2023/06/07 00:41:50;;;;;;;8.10;5.03;;;;;;;15.97;100.00;101041.53;694039;28;943;-58
2023/06/07 00:42:11;;;;;;;8.98;5.47;;;;;;;15.98;100.00;101043.28;695390;28;1509;-58
2023/06/07 00:42:32;;;;;;;7.80;5.50;;;;;;;15.98;100.00;101038.03;696472;28;1079;-57
2023/06/07 00:42:52;;;;;;;7.68;5.63;;;;;;;15.99;100.00;101037.13;694462;28;1560;-57
2023/06/07 00:43:13;;;;;;;7.60;5.70;;;;;;;16.00;100.00;101044.16;695251;28;4360;-57
2023/06/07 00:43:33;;;;;;;6.33;5.20;;;;;;;16.02;100.00;101040.59;698739;28;1240;-57
2023/06/07 00:43:53;;;;;;;7.35;5.30;;;;;;;16.03;100.00;101034.41;691881;28;989;-57
2023/06/07 00:44:16;;;;;;;7.23;5.33;;;;;;;16.05;100.00;101038.75;691436;28;1558;-57
2023/06/07 00:44:36;;;;;;;6.90;5.50;;;;;;;16.06;100.00;101039.63;693036;28;991;-57
2023/06/07 00:44:57;;;;;;;6.60;5.20;;;;;;;16.05;100.00;101037.88;697135;28;1197;-58
2023/06/07 00:45:17;;;;;;;7.17;5.30;;;;;;;16.06;100.00;101040.50;695249;28;1317;-57
2023/06/07 00:45:38;;;;;;;7.20;5.43;;;;;;;16.05;100.00;101038.75;694882;28;910;-57
2023/06/07 00:45:58;;;;;;;7.20;5.43;;;;;;;16.06;100.00;101037.88;695548;28;1360;-57
2023/06/07 00:46:21;;;;;;;7.27;5.37;;;;;;;16.07;100.00;101044.00;692136;28;4406;-57
2023/06/07 00:46:42;;;;;;;6.35;5.15;;;;;;;16.08;100.00;101037.84;691957;28;1926;-57
2023/06/07 00:47:02;;;;;;;6.30;5.20;;;;;;;16.07;100.00;101038.72;696154;28;1188;-57
2023/06/07 00:47:24;;;;;;;6.88;5.50;;;;;;;16.07;100.00;101038.72;698253;28;928;-57
2023/06/07 00:47:45;;;;;;;7.50;5.60;;;;;;;16.08;100.00;101043.97;697894;28;891;-57
2023/06/07 00:48:07;;;;;;;7.63;5.82;;;;;;;16.07;100.00;101042.22;699515;28;872;-57
2023/06/07 00:48:28;;;;;;;7.10;5.47;;;;;;;16.07;100.00;101038.72;700531;28;1293;-57
2023/06/07 00:48:50;;;;;;;7.53;5.50;;;;;;;16.07;100.00;101039.56;699557;28;1252;-57
2023/06/07 00:49:16;;;;;;;6.60;5.40;;;;;;;16.08;100.00;101029.91;700365;28;4383;-57
2023/06/07 00:49:36;;;;;;;7.50;5.43;;;;;;;16.08;100.00;101041.31;698179;28;2098;-57
2023/06/07 00:49:57;;;;;;;7.00;5.35;;;;;;;16.09;100.00;101034.28;695000;28;1233;-58
2023/06/07 00:50:17;;;;;;;7.53;5.60;;;;;;;16.08;100.00;101040.47;696130;28;1117;-57
2023/06/07 00:50:39;;;;;;;7.70;5.47;;;;;;;16.08;100.00;101037.84;696705;28;846;-57
2023/06/07 00:51:00;;;;;;;6.80;5.40;;;;;;;16.07;100.00;101034.31;695405;28;960;-57
2023/06/07 00:51:21;;;;;;;7.72;5.43;;;;;;;16.08;100.00;101032.56;695887;28;1400;-57
2023/06/07 00:51:42;;;;;;;7.53;5.45;;;;;;;16.06;100.00;101037.88;696834;28;1447;-58
2023/06/07 00:52:04;;;;;;;7.55;5.53;;;;;;;16.08;100.00;101040.47;695108;28;1481;-57
2023/06/07 00:52:24;;;;;;;8.27;5.72;;;;;;;16.08;100.00;101035.19;698057;28;4462;-57
2023/06/07 00:52:45;;;;;;;7.15;5.40;;;;;;;16.09;100.00;101037.78;697742;28;1161;-58
2023/06/07 00:53:07;;;;;;;7.47;5.53;;;;;;;16.12;100.00;101042.13;701152;28;816;-57
2023/06/07 00:53:29;;;;;;;7.13;5.32;;;;;;;16.12;100.00;101042.13;701424;28;892;-57
2023/06/07 00:53:52;;;;;;;6.72;5.22;;;;;;;16.11;100.00;101035.13;697903;28;1006;-57
2023/06/07 00:54:17;;;;;;;6.75;5.25;;;;;;;16.09;100.00;101042.19;699187;28;1419;-57
2023/06/07 00:54:38;;;;;;;7.68;5.53;;;;;;;16.09;100.00;101042.19;696773;28;1659;-57
2023/06/07 00:55:01;;;;;;;7.00;5.35;;;;;;;16.08;100.00;101040.47;698543;28;1420;-57
2023/06/07 00:55:21;;;;;;;6.93;5.10;;;;;;;16.07;100.00;101044.00;694877;28;4497;-57
2023/06/07 00:55:42;;;;;;;7.20;5.30;;;;;;;16.07;100.00;101044.84;693268;28;1147;-58
2023/06/07 00:56:05;;;;;;;6.43;5.20;;;;;;;16.07;100.00;101039.56;692327;28;1174;-57
2023/06/07 00:56:27;;;;;;;6.30;5.28;;;;;;;16.07;100.00;101038.72;693756;28;1186;-57
2023/06/07 00:56:50;;;;;;;6.32;5.40;;;;;;;16.08;100.00;101040.47;689668;28;1202;-57
2023/06/07 00:57:12;;;;;;;6.90;5.38;;;;;;;16.08;100.00;101043.09;691199;28;1011;-57
2023/06/07 00:57:33;;;;;;;7.82;5.30;;;;;;;16.08;100.00;101041.31;693208;28;952;-57
2023/06/07 00:57:54;;;;;;;7.72;5.28;;;;;;;16.07;100.00;101036.94;693431;28;1041;-57
2023/06/07 00:58:15;;;;;;;7.75;5.63;;;;;;;16.09;100.00;101042.19;694733;28;4544;-57
2023/06/07 00:58:37;;;;;;;6.50;5.18;;;;;;;16.09;100.00;101039.53;693619;28;1001;-57
2023/06/07 00:58:58;;;;;;;7.18;5.55;;;;;;;16.07;100.00;101034.31;695239;28;1039;-57
2023/06/07 00:59:20;;;;;;;7.40;5.60;;;;;;;16.07;100.00;101041.38;693610;28;813;-57
2023/06/07 00:59:41;;;;;;;7.25;5.13;;;;;;;16.08;100.00;101046.59;692724;28;1279;-57
2023/06/07 01:00:09;;;;;;;9.35;5.68;;;;;;;16.07;100.00;101041.38;690711;28;908;-57
2023/06/07 01:00:30;;;;;;;6.93;5.30;;;;;;;16.08;100.00;101035.19;694434;28;1050;-57
2023/06/07 01:00:50;;;;;;;6.93;5.05;;;;;;;16.07;100.00;101036.09;694024;28;1112;-57
2023/06/07 01:01:11;;;;;;;7.22;5.25;;;;;;;16.07;100.00;101038.72;696554;28;4973;-56
2023/06/07 01:01:33;;;;;;;7.00;5.40;;;;;;;16.06;100.00;101036.97;698660;28;892;-57
2023/06/07 01:01:55;;;;;;;7.93;5.70;;;;;;;16.06;100.00;101037.88;696886;28;1053;-57
2023/06/07 01:02:16;;;;;;;7.95;5.43;;;;;;;16.06;100.00;101036.97;700462;28;1931;-57
2023/06/07 01:02:38;;;;;;;7.75;5.50;;;;;;;16.04;100.00;101041.44;700272;28;997;-57
2023/06/07 01:02:58;;;;;;;6.40;5.20;;;;;;;16.01;100.00;101045.00;700945;28;1324;-57
2023/06/07 01:03:18;;;;;;;6.65;5.30;;;;;;;16.02;100.00;101036.19;701272;28;820;-57
2023/06/07 01:03:39;;;;;;;7.10;5.50;;;;;;;16.02;100.00;101033.56;700005;28;965;-58
2023/06/07 01:04:00;;;;;;;6.97;5.07;;;;;;;16.00;100.00;101036.22;700514;28;1097;-57
2023/06/07 01:04:20;;;;;;;7.27;5.33;;;;;;;16.02;100.00;101044.09;697477;28;4601;-57
2023/06/07 01:04:42;;;;;;;6.82;5.40;;;;;;;16.02;100.00;101045.84;696791;28;1431;-57
2023/06/07 01:05:02;;;;;;;6.82;5.15;;;;;;;16.00;100.00;101044.16;699739;28;999;-57
2023/06/07 01:05:23;;;;;;;7.43;5.80;;;;;;;16.02;100.00;101040.59;699394;28;915;-57
2023/06/07 01:05:47;;;;;;;6.88;5.40;;;;;;;16.05;100.00;101035.22;695260;28;1412;-57
2023/06/07 01:06:08;;;;;;;6.10;5.15;;;;;;;16.04;100.00;101042.28;699139;28;1230;-57
2023/06/07 01:06:33;;;;;;;7.18;5.30;;;;;;;16.03;100.00;101027.34;702827;28;924;-57
2023/06/07 01:06:54;;;;;;;8.02;5.75;;;;;;;16.00;100.00;101044.16;697098;28;1285;-57
2023/06/07 01:07:17;;;;;;;7.28;5.38;;;;;;;15.99;100.00;101042.41;698306;28;4761;-57
2023/06/07 01:07:38;;;;;;;7.38;5.40;;;;;;;15.99;100.00;101047.69;696917;28;1844;-59
2023/06/07 01:08:00;;;;;;;7.68;5.57;;;;;;;15.97;100.00;101041.53;697883;28;1478;-57
2023/06/07 01:08:21;;;;;;;7.88;5.30;;;;;;;15.99;100.00;101039.75;695304;28;946;-57
2023/06/07 01:08:43;;;;;;;7.57;5.38;;;;;;;16.04;100.00;101044.94;693724;28;962;-57
2023/06/07 01:09:13;;;;;;;7.20;5.22;;;;;;;16.03;100.00;101044.97;695864;28;1019;-57
2023/06/07 01:09:35;;;;;;;7.18;5.30;;;;;;;16.01;100.00;101034.44;695296;28;916;-57
2023/06/07 01:09:56;;;;;;;6.72;5.50;;;;;;;15.98;100.00;101043.28;696152;28;1086;-57
2023/06/07 01:10:16;;;;;;;6.53;5.40;;;;;;;15.97;100.00;101041.53;699401;28;4535;-57
2023/06/07 01:10:37;;;;;;;6.87;5.27;;;;;;;15.97;100.00;101038.91;702597;28;740;-57
2023/06/07 01:11:00;;;;;;;7.75;5.57;;;;;;;15.96;100.00;101042.47;701269;28;1493;-58
2023/06/07 01:11:22;;;;;;;6.55;5.50;;;;;;;15.95;100.00;101040.72;698098;28;2094;-57
2023/06/07 01:11:46;;;;;;;6.60;5.35;;;;;;;15.94;100.00;101038.97;693191;28;1331;-57
2023/06/07 01:12:13;;;;;;;6.03;5.13;;;;;;;15.93;100.00;101039.88;692910;28;1081;-57
2023/06/07 01:12:35;;;;;;;8.73;5.88;;;;;;;15.92;100.00;101042.53;692140;28;999;-57
2023/06/07 01:12:57;;;;;;;8.57;5.32;;;;;;;15.94;100.00;101038.97;691330;28;994;-57
2023/06/07 01:13:18;;;;;;;7.63;5.63;;;;;;;15.97;100.00;101041.53;691187;28;4441;-57
2023/06/07 01:13:39;;;;;;;7.35;5.43;;;;;;;15.98;100.00;101030.09;689156;28;1646;-57
2023/06/07 01:14:00;;;;;;;6.78;5.43;;;;;;;15.96;100.00;101031.03;693004;28;1292;-57
2023/06/07 01:14:22;;;;;;;6.00;5.40;;;;;;;15.95;100.00;101034.56;695505;28;1289;-57
2023/06/07 01:14:43;;;;;;;6.93;5.47;;;;;;;15.94;100.00;101038.97;691089;28;1714;-57
2023/06/07 01:15:04;;;;;;;6.90;5.47;;;;;;;15.93;100.00;101039.88;691036;28;1223;-57
2023/06/07 01:15:25;;;;;;;7.30;5.40;;;;;;;15.90;100.00;101039.94;693692;28;1332;-57
2023/06/07 01:15:46;;;;;;;7.05;5.50;;;;;;;15.87;100.00;101037.38;688311;28;1577;-57
2023/06/07 01:16:08;;;;;;;6.60;5.30;;;;;;;15.88;100.00;101035.59;689533;28;1135;-57
2023/06/07 01:16:29;;;;;;;6.78;5.38;;;;;;;15.88;100.00;101039.13;689055;28;4358;-57
2023/06/07 01:16:52;;;;;;;6.35;5.40;;;;;;;15.86;100.00;101040.06;687235;28;1593;-57
2023/06/07 01:17:12;;;;;;;7.75;5.63;;;;;;;15.85;100.00;101038.31;690993;28;940;-57
2023/06/07 01:17:40;;;;;;;8.00;5.68;;;;;;;15.82;100.00;101036.59;690097;28;1418;-57
2023/06/07 01:18:01;;;;;;;7.32;5.45;;;;;;;15.82;100.00;101037.50;693421;28;817;-57
2023/06/07 01:18:25;;;;;;;6.47;5.40;;;;;;;15.86;100.00;101038.28;695878;28;1156;-57
2023/06/07 01:18:46;;;;;;;6.82;5.55;;;;;;;15.93;100.00;101039.03;694113;28;1503;-58
2023/06/07 01:19:16;;;;;;;6.68;5.20;;;;;;;16.02;100.00;101032.66;696585;28;1400;-57
2023/06/07 01:19:37;;;;;;;7.45;5.38;;;;;;;15.99;100.00;101030.97;700929;28;5166;-57
2023/06/07 01:19:59;;;;;;;7.57;5.38;;;;;;;15.92;100.00;101030.25;697718;28;1597;-57
2023/06/07 01:20:24;;;;;;;6.18;5.18;;;;;;;15.92;100.00;101038.16;701357;28;936;-57
2023/06/07 01:20:54;;;;;;;6.70;5.30;;;;;;;15.88;100.00;101036.50;699481;28;1589;-57
2023/06/07 01:21:19;;;;;;;6.38;5.28;;;;;;;15.87;100.00;101039.13;700101;28;1122;-57
2023/06/07 01:21:42;;;;;;;7.07;5.43;;;;;;;15.84;100.00;101037.44;702001;28;1643;-57
2023/06/07 01:22:04;;;;;;;7.25;5.43;;;;;;;15.82;100.00;101037.50;703099;28;933;-57
2023/06/07 01:22:29;;;;;;;7.07;5.43;;;;;;;15.82;100.00;101037.50;703547;28;4514;-57
2023/06/07 01:22:53;;;;;;;6.72;5.32;;;;;;;15.81;100.00;101034.84;701458;28;1518;-58
2023/06/07 01:23:14;;;;;;;7.15;5.40;;;;;;;15.78;100.00;101035.78;703223;28;919;-57
2023/06/07 01:23:36;;;;;;;6.80;5.45;;;;;;;15.78;100.00;101026.97;701563;28;1244;-57
2023/06/07 01:23:59;;;;;;;7.65;5.40;;;;;;;15.77;100.00;101030.50;700520;28;1654;-57
2023/06/07 01:24:20;;;;;;;6.95;5.35;;;;;;;15.76;100.00;101024.38;702415;28;1332;-57
2023/06/07 01:24:42;;;;;;;6.28;5.13;;;;;;;15.77;100.00;101035.78;697438;28;1736;-57
2023/06/07 01:25:02;;;;;;;6.50;5.15;;;;;;;15.73;100.00;101035.00;698793;28;1011;-57
2023/06/07 01:25:24;;;;;;;7.22;5.22;;;;;;;15.72;100.00;101033.25;698238;28;4815;-57
2023/06/07 01:25:45;;;;;;;6.97;5.38;;;;;;;15.74;100.00;101031.47;693139;28;1236;-57
2023/06/07 01:26:05;;;;;;;7.80;5.27;;;;;;;15.74;100.00;101033.22;693375;28;1094;-57
2023/06/07 01:26:28;;;;;;;8.15;5.40;;;;;;;15.74;100.00;101031.47;696175;28;1235;-57
2023/06/07 01:26:56;;;;;;;7.88;5.70;;;;;;;15.74;100.00;101034.09;697112;28;1914;-56
2023/06/07 01:27:17;;;;;;;7.32;5.40;;;;;;;15.74;100.00;101030.59;695029;28;1289;-57
2023/06/07 01:27:43;;;;;;;8.07;5.22;;;;;;;15.74;100.00;101034.09;693051;28;1623;-57
2023/06/07 01:28:05;;;;;;;7.20;5.13;;;;;;;15.72;100.00;101035.88;695400;28;1091;-56
2023/06/07 01:28:30;;;;;;;7.40;5.40;;;;;;;15.72;100.00;101029.75;694180;28;4567;-57
2023/06/07 01:28:52;;;;;;;7.50;5.50;;;;;;;15.73;100.00;101028.84;692595;28;1266;-57
2023/06/07 01:29:15;;;;;;;6.90;5.35;;;;;;;15.72;100.00;101035.03;697985;28;1407;-57
2023/06/07 01:29:36;;;;;;;7.28;5.13;;;;;;;15.70;100.00;101028.91;700371;28;1050;-57
2023/06/07 01:29:58;;;;;;;7.13;5.20;;;;;;;15.70;100.00;101028.91;697173;28;1653;-57
2023/06/07 01:30:21;;;;;;;8.07;5.53;;;;;;;15.70;100.00;101026.28;698413;28;1325;-57
2023/06/07 01:30:42;;;;;;;7.95;5.72;;;;;;;15.69;100.00;101028.06;697549;28;1759;-57
2023/06/07 01:31:02;;;;;;;6.88;5.60;;;;;;;15.70;100.00;101026.28;698736;28;800;-57
2023/06/07 01:31:24;;;;;;;8.05;5.55;;;;;;;15.70;100.00;101029.81;697231;28;4407;-57
2023/06/07 01:31:48;;;;;;;7.65;5.35;;;;;;;15.71;100.00;101026.25;698599;28;1554;-57
2023/06/07 01:32:12;;;;;;;7.93;5.55;;;;;;;15.72;100.00;101032.41;695427;28;1456;-56
2023/06/07 01:32:32;;;;;;;6.00;5.10;;;;;;;15.72;100.00;101021.84;692324;28;1935;-56
2023/06/07 01:32:53;;;;;;;7.20;5.30;;;;;;;15.73;100.00;101028.84;689063;28;1665;-57
2023/06/07 01:33:16;;;;;;;7.60;5.50;;;;;;;15.74;100.00;101027.94;692121;28;1142;-57
2023/06/07 01:33:36;;;;;;;7.30;5.32;;;;;;;15.73;100.00;101032.38;693045;28;983;-57
2023/06/07 01:33:57;;;;;;;6.72;5.43;;;;;;;15.71;100.00;101026.25;690597;28;1562;-57
2023/06/07 01:34:19;;;;;;;6.43;5.22;;;;;;;15.77;100.00;101030.50;695862;28;4408;-56
2023/06/07 01:34:41;;;;;;;8.23;5.50;;;;;;;15.79;100.00;101034.88;691547;28;1802;-57
2023/06/07 01:35:03;;;;;;;9.75;5.90;;;;;;;15.77;100.00;101030.50;693145;28;1361;-57
2023/06/07 01:35:28;;;;;;;9.75;5.47;;;;;;;15.77;100.00;101030.50;693613;28;940;-57
2023/06/07 01:35:52;;;;;;;7.53;5.30;;;;;;;15.76;100.00;101029.66;691842;28;1464;-57
2023/06/07 01:36:14;;;;;;;7.25;5.20;;;;;;;15.76;100.00;101029.66;697645;28;976;-57
2023/06/07 01:36:39;;;;;;;7.93;5.53;;;;;;;15.75;100.00;101030.56;697220;28;1234;-57
2023/06/07 01:37:01;;;;;;;7.10;5.65;;;;;;;15.76;100.00;101028.81;694143;28;980;-57
2023/06/07 01:37:22;;;;;;;6.50;5.65;;;;;;;15.83;100.00;101030.44;697298;28;4511;-57
2023/06/07 01:37:46;;;;;;;6.82;5.53;;;;;;;15.86;100.00;101027.72;696328;28;1903;-57
2023/06/07 01:38:08;;;;;;;8.18;5.47;;;;;;;15.84;100.00;101024.28;696081;28;931;-57
2023/06/07 01:38:31;;;;;;;6.80;5.40;;;;;;;15.82;100.00;101028.69;697857;28;983;-57
2023/06/07 01:38:52;;;;;;;6.28;5.32;;;;;;;15.80;100.00;101025.22;697814;28;1679;-57
2023/06/07 01:39:15;;;;;;;6.28;5.30;;;;;;;15.77;100.00;101027.88;698881;28;1173;-57
2023/06/07 01:39:37;;;;;;;7.90;5.38;;;;;;;15.76;100.00;101029.66;699007;28;876;-57
2023/06/07 01:39:59;;;;;;;7.05;5.45;;;;;;;15.77;100.00;101028.75;695035;28;1730;-57
2023/06/07 01:40:22;;;;;;;7.50;5.53;;;;;;;15.79;100.00;101024.34;698030;28;4361;-57
2023/06/07 01:40:44;;;;;;;7.55;5.90;;;;;;;15.78;100.00;101026.97;696565;28;1586;-57
2023/06/07 01:41:06;;;;;;;7.90;5.70;;;;;;;15.79;100.00;101026.09;699415;28;991;-57
2023/06/07 01:41:28;;;;;;;7.25;5.30;;;;;;;15.78;100.00;101016.44;701771;28;1022;-57
2023/06/07 01:41:51;;;;;;;8.32;5.30;;;;;;;15.85;100.00;101025.97;699799;28;1490;-57
2023/06/07 01:42:16;;;;;;;7.50;5.25;;;;;;;15.91;100.00;101028.50;701406;28;883;-57
2023/06/07 01:42:37;;;;;;;6.38;5.10;;;;;;;15.90;100.00;101021.50;700269;28;1296;-57